sensor_id;sensor_type;location;lat;lon;timestamp;temperature;humidity
78541;SHT31;67835;51.968;5.646;2024-01-30T00:01:45;11.2;67.6
78541;SHT31;67835;51.968;5.646;2024-01-30T00:04:13;11.1;67.7
78541;SHT31;67835;51.968;5.646;2024-01-30T00:06:43;11.1;67.7
78541;SHT31;67835;51.968;5.646;2024-01-30T00:09:12;11.1;67.9
78541;SHT31;67835;51.968;5.646;2024-01-30T00:11:41;11.1;68.1
78541;SHT31;67835;51.968;5.646;2024-01-30T00:14:10;11.0;68.2
78541;SHT31;67835;51.968;5.646;2024-01-30T00:16:38;11.0;68.2
78541;SHT31;67835;51.968;5.646;2024-01-30T00:19:07;11.0;68.4
78541;SHT31;67835;51.968;5.646;2024-01-30T00:21:36;11.0;68.4
78541;SHT31;67835;51.968;5.646;2024-01-30T00:24:05;11.0;68.3
78541;SHT31;67835;51.968;5.646;2024-01-30T00:26:33;10.9;68.4
78541;SHT31;67835;51.968;5.646;2024-01-30T00:29:02;10.9;68.2
78541;SHT31;67835;51.968;5.646;2024-01-30T00:31:31;10.9;68.2
78541;SHT31;67835;51.968;5.646;2024-01-30T00:34:00;10.9;68.3
78541;SHT31;67835;51.968;5.646;2024-01-30T00:36:29;10.9;68.3
78541;SHT31;67835;51.968;5.646;2024-01-30T00:38:58;10.9;68.4
78541;SHT31;67835;51.968;5.646;2024-01-30T00:41:28;10.8;68.5
78541;SHT31;67835;51.968;5.646;2024-01-30T00:43:57;10.8;68.6
78541;SHT31;67835;51.968;5.646;2024-01-30T00:46:25;10.8;68.4
78541;SHT31;67835;51.968;5.646;2024-01-30T00:48:54;10.8;68.5
78541;SHT31;67835;51.968;5.646;2024-01-30T00:51:22;10.8;68.6
78541;SHT31;67835;51.968;5.646;2024-01-30T00:53:51;10.8;68.5
78541;SHT31;67835;51.968;5.646;2024-01-30T00:56:19;10.7;68.4
78541;SHT31;67835;51.968;5.646;2024-01-30T00:58:48;10.7;68.4
78541;SHT31;67835;51.968;5.646;2024-01-30T01:01:16;10.7;68.5
78541;SHT31;67835;51.968;5.646;2024-01-30T01:03:45;10.7;68.6
78541;SHT31;67835;51.968;5.646;2024-01-30T01:06:16;10.7;68.4
78541;SHT31;67835;51.968;5.646;2024-01-30T01:08:44;10.7;68.5
78541;SHT31;67835;51.968;5.646;2024-01-30T01:11:13;10.6;68.6
78541;SHT31;67835;51.968;5.646;2024-01-30T01:13:41;10.6;68.6
78541;SHT31;67835;51.968;5.646;2024-01-30T01:16:10;10.6;68.5
78541;SHT31;67835;51.968;5.646;2024-01-30T01:18:38;10.6;68.5
78541;SHT31;67835;51.968;5.646;2024-01-30T01:21:07;10.6;68.3
78541;SHT31;67835;51.968;5.646;2024-01-30T01:23:35;10.6;68.3
78541;SHT31;67835;51.968;5.646;2024-01-30T01:26:04;10.6;68.3
78541;SHT31;67835;51.968;5.646;2024-01-30T01:28:33;10.5;68.5
78541;SHT31;67835;51.968;5.646;2024-01-30T01:31:01;10.5;68.5
78541;SHT31;67835;51.968;5.646;2024-01-30T01:33:31;10.5;68.4
78541;SHT31;67835;51.968;5.646;2024-01-30T01:36:01;10.5;68.6
78541;SHT31;67835;51.968;5.646;2024-01-30T01:38:30;10.5;68.6
78541;SHT31;67835;51.968;5.646;2024-01-30T01:40:58;10.5;68.4
78541;SHT31;67835;51.968;5.646;2024-01-30T01:43:26;10.5;68.5
78541;SHT31;67835;51.968;5.646;2024-01-30T01:45:56;10.6;68.2
78541;SHT31;67835;51.968;5.646;2024-01-30T01:48:26;10.6;68.1
78541;SHT31;67835;51.968;5.646;2024-01-30T01:50:58;10.6;67.9
78541;SHT31;67835;51.968;5.646;2024-01-30T01:53:27;10.6;67.8
78541;SHT31;67835;51.968;5.646;2024-01-30T01:55:57;10.6;67.5
78541;SHT31;67835;51.968;5.646;2024-01-30T01:58:27;10.6;67.3
78541;SHT31;67835;51.968;5.646;2024-01-30T02:00:59;10.6;67.4
78541;SHT31;67835;51.968;5.646;2024-01-30T02:03:28;10.6;67.5
78541;SHT31;67835;51.968;5.646;2024-01-30T02:05:57;10.5;67.3
78541;SHT31;67835;51.968;5.646;2024-01-30T02:08:26;10.5;67.3
78541;SHT31;67835;51.968;5.646;2024-01-30T02:10:55;10.5;67.4
78541;SHT31;67835;51.968;5.646;2024-01-30T02:13:25;10.5;67.5
78541;SHT31;67835;51.968;5.646;2024-01-30T02:15:54;10.4;67.7
78541;SHT31;67835;51.968;5.646;2024-01-30T02:18:23;10.4;67.8
78541;SHT31;67835;51.968;5.646;2024-01-30T02:20:54;10.4;67.7
78541;SHT31;67835;51.968;5.646;2024-01-30T02:23:24;10.4;67.6
78541;SHT31;67835;51.968;5.646;2024-01-30T02:25:54;10.3;67.7
78541;SHT31;67835;51.968;5.646;2024-01-30T02:28:22;10.3;67.7
78541;SHT31;67835;51.968;5.646;2024-01-30T02:30:50;10.3;67.8
78541;SHT31;67835;51.968;5.646;2024-01-30T02:33:19;10.3;67.9
78541;SHT31;67835;51.968;5.646;2024-01-30T02:35:48;10.3;67.9
78541;SHT31;67835;51.968;5.646;2024-01-30T02:38:17;10.3;67.8
78541;SHT31;67835;51.968;5.646;2024-01-30T02:40:45;10.2;67.8
78541;SHT31;67835;51.968;5.646;2024-01-30T02:43:14;10.2;67.9
78541;SHT31;67835;51.968;5.646;2024-01-30T02:45:42;10.2;68.0
78541;SHT31;67835;51.968;5.646;2024-01-30T02:48:11;10.2;68.0
78541;SHT31;67835;51.968;5.646;2024-01-30T02:50:41;10.2;67.9
78541;SHT31;67835;51.968;5.646;2024-01-30T02:53:10;10.2;67.9
78541;SHT31;67835;51.968;5.646;2024-01-30T02:55:39;10.2;67.9
78541;SHT31;67835;51.968;5.646;2024-01-30T02:58:08;10.2;67.9
78541;SHT31;67835;51.968;5.646;2024-01-30T03:00:36;10.2;67.9
78541;SHT31;67835;51.968;5.646;2024-01-30T03:03:05;10.2;68.0
78541;SHT31;67835;51.968;5.646;2024-01-30T03:05:34;10.2;67.9
78541;SHT31;67835;51.968;5.646;2024-01-30T03:08:04;10.2;67.8
78541;SHT31;67835;51.968;5.646;2024-01-30T03:10:32;10.2;67.8
78541;SHT31;67835;51.968;5.646;2024-01-30T03:13:01;10.2;67.8
78541;SHT31;67835;51.968;5.646;2024-01-30T03:15:29;10.2;67.8
78541;SHT31;67835;51.968;5.646;2024-01-30T03:17:58;10.2;67.9
78541;SHT31;67835;51.968;5.646;2024-01-30T03:20:27;10.2;68.0
78541;SHT31;67835;51.968;5.646;2024-01-30T03:22:56;10.2;68.0
78541;SHT31;67835;51.968;5.646;2024-01-30T03:25:26;10.2;67.9
78541;SHT31;67835;51.968;5.646;2024-01-30T03:30:19;10.2;67.9
78541;SHT31;67835;51.968;5.646;2024-01-30T03:32:47;10.2;67.7
78541;SHT31;67835;51.968;5.646;2024-01-30T03:35:18;10.3;67.7
78541;SHT31;67835;51.968;5.646;2024-01-30T03:37:47;10.3;67.7
78541;SHT31;67835;51.968;5.646;2024-01-30T03:40:16;10.3;67.6
78541;SHT31;67835;51.968;5.646;2024-01-30T03:42:44;10.3;67.6
78541;SHT31;67835;51.968;5.646;2024-01-30T03:45:15;10.3;67.5
78541;SHT31;67835;51.968;5.646;2024-01-30T03:47:47;10.3;67.5
78541;SHT31;67835;51.968;5.646;2024-01-30T03:50:18;10.3;67.4
78541;SHT31;67835;51.968;5.646;2024-01-30T03:52:46;10.3;67.4
78541;SHT31;67835;51.968;5.646;2024-01-30T03:55:15;10.3;67.4
78541;SHT31;67835;51.968;5.646;2024-01-30T03:57:44;10.3;67.4
78541;SHT31;67835;51.968;5.646;2024-01-30T04:00:14;10.3;67.4
78541;SHT31;67835;51.968;5.646;2024-01-30T04:02:43;10.3;67.4
78541;SHT31;67835;51.968;5.646;2024-01-30T04:05:11;10.3;67.4
78541;SHT31;67835;51.968;5.646;2024-01-30T04:07:40;10.3;67.4
78541;SHT31;67835;51.968;5.646;2024-01-30T04:10:10;10.3;67.4
78541;SHT31;67835;51.968;5.646;2024-01-30T04:12:38;10.3;67.2
78541;SHT31;67835;51.968;5.646;2024-01-30T04:15:07;10.3;67.2
78541;SHT31;67835;51.968;5.646;2024-01-30T04:17:36;10.3;67.2
78541;SHT31;67835;51.968;5.646;2024-01-30T04:20:06;10.3;67.3
78541;SHT31;67835;51.968;5.646;2024-01-30T04:22:34;10.3;67.2
78541;SHT31;67835;51.968;5.646;2024-01-30T04:25:03;10.3;67.3
78541;SHT31;67835;51.968;5.646;2024-01-30T04:27:32;10.3;67.2
78541;SHT31;67835;51.968;5.646;2024-01-30T04:30:00;10.3;67.2
78541;SHT31;67835;51.968;5.646;2024-01-30T04:32:30;10.3;67.3
78541;SHT31;67835;51.968;5.646;2024-01-30T04:34:58;10.3;67.3
78541;SHT31;67835;51.968;5.646;2024-01-30T04:37:28;10.3;67.4
78541;SHT31;67835;51.968;5.646;2024-01-30T04:39:57;10.3;67.5
78541;SHT31;67835;51.968;5.646;2024-01-30T04:42:26;10.4;67.6
78541;SHT31;67835;51.968;5.646;2024-01-30T04:44:54;10.4;67.5
78541;SHT31;67835;51.968;5.646;2024-01-30T04:47:23;10.4;67.6
78541;SHT31;67835;51.968;5.646;2024-01-30T04:49:51;10.4;67.5
78541;SHT31;67835;51.968;5.646;2024-01-30T04:52:20;10.4;67.6
78541;SHT31;67835;51.968;5.646;2024-01-30T04:54:48;10.4;67.6
78541;SHT31;67835;51.968;5.646;2024-01-30T04:57:17;10.4;67.7
78541;SHT31;67835;51.968;5.646;2024-01-30T04:59:45;10.4;67.6
78541;SHT31;67835;51.968;5.646;2024-01-30T05:02:15;10.4;67.6
78541;SHT31;67835;51.968;5.646;2024-01-30T05:04:43;10.4;67.6
78541;SHT31;67835;51.968;5.646;2024-01-30T05:07:12;10.5;67.5
78541;SHT31;67835;51.968;5.646;2024-01-30T05:09:40;10.5;67.4
78541;SHT31;67835;51.968;5.646;2024-01-30T05:12:09;10.5;67.4
78541;SHT31;67835;51.968;5.646;2024-01-30T05:14:37;10.5;67.4
78541;SHT31;67835;51.968;5.646;2024-01-30T05:17:06;10.5;67.4
78541;SHT31;67835;51.968;5.646;2024-01-30T05:19:36;10.5;67.5
78541;SHT31;67835;51.968;5.646;2024-01-30T05:22:04;10.5;67.5
78541;SHT31;67835;51.968;5.646;2024-01-30T05:24:33;10.5;67.6
78541;SHT31;67835;51.968;5.646;2024-01-30T05:27:01;10.5;67.6
78541;SHT31;67835;51.968;5.646;2024-01-30T05:29:30;10.6;67.6
78541;SHT31;67835;51.968;5.646;2024-01-30T05:31:59;10.6;67.6
78541;SHT31;67835;51.968;5.646;2024-01-30T05:34:28;10.6;67.6
78541;SHT31;67835;51.968;5.646;2024-01-30T05:36:56;10.6;67.6
78541;SHT31;67835;51.968;5.646;2024-01-30T05:39:25;10.6;67.7
78541;SHT31;67835;51.968;5.646;2024-01-30T05:41:53;10.6;67.7
78541;SHT31;67835;51.968;5.646;2024-01-30T05:44:22;10.6;67.7
78541;SHT31;67835;51.968;5.646;2024-01-30T05:46:52;10.6;67.6
78541;SHT31;67835;51.968;5.646;2024-01-30T05:49:21;10.7;67.7
78541;SHT31;67835;51.968;5.646;2024-01-30T05:51:50;10.7;67.7
78541;SHT31;67835;51.968;5.646;2024-01-30T05:54:18;10.7;67.7
78541;SHT31;67835;51.968;5.646;2024-01-30T05:56:47;10.7;67.6
78541;SHT31;67835;51.968;5.646;2024-01-30T05:59:15;10.7;67.6
78541;SHT31;67835;51.968;5.646;2024-01-30T06:01:47;10.8;67.6
78541;SHT31;67835;51.968;5.646;2024-01-30T06:04:16;10.8;67.6
78541;SHT31;67835;51.968;5.646;2024-01-30T06:06:44;10.8;67.7
78541;SHT31;67835;51.968;5.646;2024-01-30T06:09:12;10.8;67.6
78541;SHT31;67835;51.968;5.646;2024-01-30T06:11:41;10.8;67.6
78541;SHT31;67835;51.968;5.646;2024-01-30T06:14:10;10.8;67.6
78541;SHT31;67835;51.968;5.646;2024-01-30T06:16:38;10.8;67.6
78541;SHT31;67835;51.968;5.646;2024-01-30T06:19:06;10.9;67.5
78541;SHT31;67835;51.968;5.646;2024-01-30T06:21:35;10.9;67.5
78541;SHT31;67835;51.968;5.646;2024-01-30T06:24:05;10.9;67.5
78541;SHT31;67835;51.968;5.646;2024-01-30T06:26:34;10.9;67.5
78541;SHT31;67835;51.968;5.646;2024-01-30T06:29:03;10.9;67.5
78541;SHT31;67835;51.968;5.646;2024-01-30T06:31:32;10.9;67.5
78541;SHT31;67835;51.968;5.646;2024-01-30T06:34:00;11.0;67.4
78541;SHT31;67835;51.968;5.646;2024-01-30T06:36:28;11.0;67.3
78541;SHT31;67835;51.968;5.646;2024-01-30T06:38:57;11.0;67.2
78541;SHT31;67835;51.968;5.646;2024-01-30T06:41:27;11.0;67.2
78541;SHT31;67835;51.968;5.646;2024-01-30T06:43:56;11.0;67.1
78541;SHT31;67835;51.968;5.646;2024-01-30T06:46:25;11.0;67.1
78541;SHT31;67835;51.968;5.646;2024-01-30T06:48:53;11.1;67.1
78541;SHT31;67835;51.968;5.646;2024-01-30T06:51:23;11.1;67.1
78541;SHT31;67835;51.968;5.646;2024-01-30T06:53:51;11.1;67.1
78541;SHT31;67835;51.968;5.646;2024-01-30T06:56:20;11.1;67.1
78541;SHT31;67835;51.968;5.646;2024-01-30T06:58:49;11.1;67.0
78541;SHT31;67835;51.968;5.646;2024-01-30T07:01:18;11.1;67.0
78541;SHT31;67835;51.968;5.646;2024-01-30T07:03:47;11.1;67.1
78541;SHT31;67835;51.968;5.646;2024-01-30T07:06:18;11.1;67.0
78541;SHT31;67835;51.968;5.646;2024-01-30T07:08:46;11.1;67.0
78541;SHT31;67835;51.968;5.646;2024-01-30T07:11:20;11.1;66.9
78541;SHT31;67835;51.968;5.646;2024-01-30T07:13:50;11.2;66.8
78541;SHT31;67835;51.968;5.646;2024-01-30T07:16:19;11.2;66.8
78541;SHT31;67835;51.968;5.646;2024-01-30T07:18:49;11.2;66.8
78541;SHT31;67835;51.968;5.646;2024-01-30T07:21:17;11.2;66.8
78541;SHT31;67835;51.968;5.646;2024-01-30T07:23:48;11.2;66.8
78541;SHT31;67835;51.968;5.646;2024-01-30T07:26:17;11.2;66.9
78541;SHT31;67835;51.968;5.646;2024-01-30T07:28:48;11.2;67.0
78541;SHT31;67835;51.968;5.646;2024-01-30T07:31:16;11.2;67.1
78541;SHT31;67835;51.968;5.646;2024-01-30T07:33:47;11.2;67.2
78541;SHT31;67835;51.968;5.646;2024-01-30T07:36:15;11.2;67.3
78541;SHT31;67835;51.968;5.646;2024-01-30T07:38:44;11.2;67.4
78541;SHT31;67835;51.968;5.646;2024-01-30T07:41:12;11.2;67.5
78541;SHT31;67835;51.968;5.646;2024-01-30T07:43:41;11.2;67.6
78541;SHT31;67835;51.968;5.646;2024-01-30T07:46:10;11.2;67.8
78541;SHT31;67835;51.968;5.646;2024-01-30T07:48:40;11.2;67.9
78541;SHT31;67835;51.968;5.646;2024-01-30T07:51:08;11.2;68.0
78541;SHT31;67835;51.968;5.646;2024-01-30T07:53:37;11.2;68.2
78541;SHT31;67835;51.968;5.646;2024-01-30T07:56:06;11.2;68.3
78541;SHT31;67835;51.968;5.646;2024-01-30T07:58:35;11.2;68.4
78541;SHT31;67835;51.968;5.646;2024-01-30T08:01:04;11.2;68.6
78541;SHT31;67835;51.968;5.646;2024-01-30T08:03:32;11.2;68.6
78541;SHT31;67835;51.968;5.646;2024-01-30T08:06:02;11.2;68.7
78541;SHT31;67835;51.968;5.646;2024-01-30T08:08:33;11.3;68.8
78541;SHT31;67835;51.968;5.646;2024-01-30T08:11:03;11.3;68.9
78541;SHT31;67835;51.968;5.646;2024-01-30T08:13:34;11.3;68.9
78541;SHT31;67835;51.968;5.646;2024-01-30T08:16:03;11.4;69.0
78541;SHT31;67835;51.968;5.646;2024-01-30T08:18:31;11.4;69.1
78541;SHT31;67835;51.968;5.646;2024-01-30T08:21:00;11.5;69.2
78541;SHT31;67835;51.968;5.646;2024-01-30T08:23:29;11.5;69.2
78541;SHT31;67835;51.968;5.646;2024-01-30T08:25:57;11.6;69.2
78541;SHT31;67835;51.968;5.646;2024-01-30T08:28:26;11.6;69.1
78541;SHT31;67835;51.968;5.646;2024-01-30T08:30:54;11.7;68.9
78541;SHT31;67835;51.968;5.646;2024-01-30T08:33:23;11.7;68.8
78541;SHT31;67835;51.968;5.646;2024-01-30T08:35:52;11.8;68.7
78541;SHT31;67835;51.968;5.646;2024-01-30T08:38:21;11.9;68.5
78541;SHT31;67835;51.968;5.646;2024-01-30T08:40:49;11.9;68.4
78541;SHT31;67835;51.968;5.646;2024-01-30T08:43:20;12.0;68.3
78541;SHT31;67835;51.968;5.646;2024-01-30T08:45:49;12.0;68.2
78541;SHT31;67835;51.968;5.646;2024-01-30T08:48:17;12.1;68.1
78541;SHT31;67835;51.968;5.646;2024-01-30T08:50:46;12.1;68.0
78541;SHT31;67835;51.968;5.646;2024-01-30T08:53:14;12.2;67.8
78541;SHT31;67835;51.968;5.646;2024-01-30T08:55:43;12.2;67.7
78541;SHT31;67835;51.968;5.646;2024-01-30T08:58:12;12.3;67.6
78541;SHT31;67835;51.968;5.646;2024-01-30T09:00:42;12.3;67.5
78541;SHT31;67835;51.968;5.646;2024-01-30T09:03:10;12.3;67.4
78541;SHT31;67835;51.968;5.646;2024-01-30T09:05:39;12.4;67.4
78541;SHT31;67835;51.968;5.646;2024-01-30T09:08:07;12.4;67.3
78541;SHT31;67835;51.968;5.646;2024-01-30T09:10:36;12.5;67.4
78541;SHT31;67835;51.968;5.646;2024-01-30T09:13:05;12.5;67.4
78541;SHT31;67835;51.968;5.646;2024-01-30T09:15:35;12.6;67.3
78541;SHT31;67835;51.968;5.646;2024-01-30T09:18:04;12.6;67.2
78541;SHT31;67835;51.968;5.646;2024-01-30T09:20:33;12.7;67.0
78541;SHT31;67835;51.968;5.646;2024-01-30T09:23:01;12.7;66.9
78541;SHT31;67835;51.968;5.646;2024-01-30T09:25:30;12.8;66.9
78541;SHT31;67835;51.968;5.646;2024-01-30T09:27:59;12.8;66.7
78541;SHT31;67835;51.968;5.646;2024-01-30T09:30:28;12.8;66.6
78541;SHT31;67835;51.968;5.646;2024-01-30T09:32:56;12.9;66.6
78541;SHT31;67835;51.968;5.646;2024-01-30T09:35:25;12.9;66.7
78541;SHT31;67835;51.968;5.646;2024-01-30T09:37:53;12.9;66.7
78541;SHT31;67835;51.968;5.646;2024-01-30T09:40:24;13.0;66.8
78541;SHT31;67835;51.968;5.646;2024-01-30T09:42:54;13.0;66.7
78541;SHT31;67835;51.968;5.646;2024-01-30T09:45:24;13.1;66.6
78541;SHT31;67835;51.968;5.646;2024-01-30T09:47:55;13.1;66.5
78541;SHT31;67835;51.968;5.646;2024-01-30T09:50:24;13.1;66.6
78541;SHT31;67835;51.968;5.646;2024-01-30T09:52:58;13.2;66.7
78541;SHT31;67835;51.968;5.646;2024-01-30T09:55:30;13.2;66.6
78541;SHT31;67835;51.968;5.646;2024-01-30T09:57:58;13.3;66.5
78541;SHT31;67835;51.968;5.646;2024-01-30T10:00:27;13.3;66.4
78541;SHT31;67835;51.968;5.646;2024-01-30T10:02:55;13.3;66.4
78541;SHT31;67835;51.968;5.646;2024-01-30T10:05:27;13.3;66.3
78541;SHT31;67835;51.968;5.646;2024-01-30T10:07:56;13.3;66.4
78541;SHT31;67835;51.968;5.646;2024-01-30T10:10:25;13.4;66.4
78541;SHT31;67835;51.968;5.646;2024-01-30T10:12:54;13.4;66.8
78541;SHT31;67835;51.968;5.646;2024-01-30T10:15:23;13.4;66.6
78541;SHT31;67835;51.968;5.646;2024-01-30T10:17:54;13.5;66.4
78541;SHT31;67835;51.968;5.646;2024-01-30T10:20:25;13.5;66.4
78541;SHT31;67835;51.968;5.646;2024-01-30T10:22:55;13.6;66.2
78541;SHT31;67835;51.968;5.646;2024-01-30T10:25:25;13.6;66.0
78541;SHT31;67835;51.968;5.646;2024-01-30T10:27:56;13.6;65.9
78541;SHT31;67835;51.968;5.646;2024-01-30T10:30:25;13.6;65.8
78541;SHT31;67835;51.968;5.646;2024-01-30T10:32:55;13.7;65.8
78541;SHT31;67835;51.968;5.646;2024-01-30T10:35:23;13.7;65.6
78541;SHT31;67835;51.968;5.646;2024-01-30T10:37:53;13.7;65.4
78541;SHT31;67835;51.968;5.646;2024-01-30T10:40:28;13.8;65.4
78541;SHT31;67835;51.968;5.646;2024-01-30T10:43:02;13.8;65.1
78541;SHT31;67835;51.968;5.646;2024-01-30T10:45:32;13.9;64.7
78541;SHT31;67835;51.968;5.646;2024-01-30T10:48:05;13.9;64.6
78541;SHT31;67835;51.968;5.646;2024-01-30T10:50:36;14.0;64.5
78541;SHT31;67835;51.968;5.646;2024-01-30T10:53:07;14.0;64.4
78541;SHT31;67835;51.968;5.646;2024-01-30T10:55:37;14.1;64.2
78541;SHT31;67835;51.968;5.646;2024-01-30T10:58:08;14.2;64.6
78541;SHT31;67835;51.968;5.646;2024-01-30T11:00:38;14.3;64.2
78541;SHT31;67835;51.968;5.646;2024-01-30T11:03:07;14.6;63.0
78541;SHT31;67835;51.968;5.646;2024-01-30T11:05:40;14.7;62.5
78541;SHT31;67835;51.968;5.646;2024-01-30T11:08:13;14.9;62.1
78541;SHT31;67835;51.968;5.646;2024-01-30T11:10:55;14.9;61.6
78541;SHT31;67835;51.968;5.646;2024-01-30T11:13:26;15.0;61.1
78541;SHT31;67835;51.968;5.646;2024-01-30T11:15:59;15.0;61.1
78541;SHT31;67835;51.968;5.646;2024-01-30T11:18:32;15.0;61.1
78541;SHT31;67835;51.968;5.646;2024-01-30T11:21:01;15.0;61.0
78541;SHT31;67835;51.968;5.646;2024-01-30T11:23:33;15.0;61.0
78541;SHT31;67835;51.968;5.646;2024-01-30T11:26:04;15.0;61.0
78541;SHT31;67835;51.968;5.646;2024-01-30T11:28:35;15.0;61.3
78541;SHT31;67835;51.968;5.646;2024-01-30T11:31:07;15.0;61.8
78541;SHT31;67835;51.968;5.646;2024-01-30T11:33:38;15.0;61.7
78541;SHT31;67835;51.968;5.646;2024-01-30T11:36:08;15.0;61.2
78541;SHT31;67835;51.968;5.646;2024-01-30T11:38:38;15.0;61.2
78541;SHT31;67835;51.968;5.646;2024-01-30T11:41:08;15.0;61.1
78541;SHT31;67835;51.968;5.646;2024-01-30T11:43:39;15.1;61.0
78541;SHT31;67835;51.968;5.646;2024-01-30T11:46:08;15.1;60.7
78541;SHT31;67835;51.968;5.646;2024-01-30T11:48:37;15.1;59.4
78541;SHT31;67835;51.968;5.646;2024-01-30T11:51:06;15.2;59.6
78541;SHT31;67835;51.968;5.646;2024-01-30T11:53:35;15.2;59.1
78541;SHT31;67835;51.968;5.646;2024-01-30T11:56:06;15.3;58.8
78541;SHT31;67835;51.968;5.646;2024-01-30T11:58:35;15.3;58.5
78541;SHT31;67835;51.968;5.646;2024-01-30T12:01:04;15.3;58.5
78541;SHT31;67835;51.968;5.646;2024-01-30T12:03:32;15.3;59.3
78541;SHT31;67835;51.968;5.646;2024-01-30T12:06:03;15.3;58.3
78541;SHT31;67835;51.968;5.646;2024-01-30T12:08:32;15.3;57.9
78541;SHT31;67835;51.968;5.646;2024-01-30T12:11:01;15.2;57.4
78541;SHT31;67835;51.968;5.646;2024-01-30T12:13:34;15.2;57.7
78541;SHT31;67835;51.968;5.646;2024-01-30T12:16:03;15.1;57.6
78541;SHT31;67835;51.968;5.646;2024-01-30T12:18:32;15.0;57.6
78541;SHT31;67835;51.968;5.646;2024-01-30T12:21:01;15.0;58.4
78541;SHT31;67835;51.968;5.646;2024-01-30T12:23:32;14.9;58.2
78541;SHT31;67835;51.968;5.646;2024-01-30T12:26:03;14.9;57.2
78541;SHT31;67835;51.968;5.646;2024-01-30T12:28:33;14.8;56.8
78541;SHT31;67835;51.968;5.646;2024-01-30T12:31:04;14.7;56.7
78541;SHT31;67835;51.968;5.646;2024-01-30T12:33:32;14.6;56.5
78541;SHT31;67835;51.968;5.646;2024-01-30T12:36:04;14.5;56.8
78541;SHT31;67835;51.968;5.646;2024-01-30T12:38:35;14.5;56.9
78541;SHT31;67835;51.968;5.646;2024-01-30T12:41:06;14.4;57.1
78541;SHT31;67835;51.968;5.646;2024-01-30T12:43:35;14.3;57.2
78541;SHT31;67835;51.968;5.646;2024-01-30T12:46:05;14.3;57.5
78541;SHT31;67835;51.968;5.646;2024-01-30T12:48:35;14.3;57.8
78541;SHT31;67835;51.968;5.646;2024-01-30T12:51:03;14.2;57.5
78541;SHT31;67835;51.968;5.646;2024-01-30T12:53:33;14.2;57.8
78541;SHT31;67835;51.968;5.646;2024-01-30T12:56:03;14.2;57.6
78541;SHT31;67835;51.968;5.646;2024-01-30T12:58:31;14.2;57.5
78541;SHT31;67835;51.968;5.646;2024-01-30T13:01:00;14.2;57.3
78541;SHT31;67835;51.968;5.646;2024-01-30T13:03:31;14.2;57.3
78541;SHT31;67835;51.968;5.646;2024-01-30T13:06:00;14.2;57.1
78541;SHT31;67835;51.968;5.646;2024-01-30T13:08:29;14.2;57.2
78541;SHT31;67835;51.968;5.646;2024-01-30T13:10:58;14.2;57.0
78541;SHT31;67835;51.968;5.646;2024-01-30T13:13:26;14.2;57.0
78541;SHT31;67835;51.968;5.646;2024-01-30T13:15:56;14.2;57.1
78541;SHT31;67835;51.968;5.646;2024-01-30T13:18:25;14.1;57.4
78541;SHT31;67835;51.968;5.646;2024-01-30T13:20:53;14.1;57.8
78541;SHT31;67835;51.968;5.646;2024-01-30T13:23:21;14.0;58.1
78541;SHT31;67835;51.968;5.646;2024-01-30T13:25:50;13.9;58.4
78541;SHT31;67835;51.968;5.646;2024-01-30T13:28:20;13.8;58.3
78541;SHT31;67835;51.968;5.646;2024-01-30T13:30:49;13.7;58.6
78541;SHT31;67835;51.968;5.646;2024-01-30T13:33:17;13.6;58.5
78541;SHT31;67835;51.968;5.646;2024-01-30T13:35:46;13.6;58.3
78541;SHT31;67835;51.968;5.646;2024-01-30T13:38:14;13.5;58.5
78541;SHT31;67835;51.968;5.646;2024-01-30T13:40:43;13.4;58.7
78541;SHT31;67835;51.968;5.646;2024-01-30T13:43:13;13.3;58.7
78541;SHT31;67835;51.968;5.646;2024-01-30T13:45:42;13.3;59.1
78541;SHT31;67835;51.968;5.646;2024-01-30T13:48:12;13.2;58.9
78541;SHT31;67835;51.968;5.646;2024-01-30T13:50:40;13.2;59.0
78541;SHT31;67835;51.968;5.646;2024-01-30T13:53:09;13.1;59.5
78541;SHT31;67835;51.968;5.646;2024-01-30T13:55:37;13.1;59.6
78541;SHT31;67835;51.968;5.646;2024-01-30T13:58:06;13.0;59.5
78541;SHT31;67835;51.968;5.646;2024-01-30T14:00:36;13.0;59.8
78541;SHT31;67835;51.968;5.646;2024-01-30T14:03:07;13.0;60.0
78541;SHT31;67835;51.968;5.646;2024-01-30T14:05:36;12.9;59.8
78541;SHT31;67835;51.968;5.646;2024-01-30T14:08:05;12.9;59.7
78541;SHT31;67835;51.968;5.646;2024-01-30T14:10:37;12.9;59.8
78541;SHT31;67835;51.968;5.646;2024-01-30T14:13:07;12.9;60.3
78541;SHT31;67835;51.968;5.646;2024-01-30T14:15:36;12.9;60.3
78541;SHT31;67835;51.968;5.646;2024-01-30T14:18:05;12.9;60.3
78541;SHT31;67835;51.968;5.646;2024-01-30T14:20:35;12.9;60.7
78541;SHT31;67835;51.968;5.646;2024-01-30T14:23:04;12.9;60.5
78541;SHT31;67835;51.968;5.646;2024-01-30T14:25:33;13.0;60.5
78541;SHT31;67835;51.968;5.646;2024-01-30T14:28:01;13.0;60.2
78541;SHT31;67835;51.968;5.646;2024-01-30T14:30:30;13.0;60.4
78541;SHT31;67835;51.968;5.646;2024-01-30T14:32:58;13.0;60.7
78541;SHT31;67835;51.968;5.646;2024-01-30T14:35:27;13.0;60.7
78541;SHT31;67835;51.968;5.646;2024-01-30T14:37:56;13.1;60.6
78541;SHT31;67835;51.968;5.646;2024-01-30T14:40:25;13.1;60.9
78541;SHT31;67835;51.968;5.646;2024-01-30T14:42:54;13.1;61.2
78541;SHT31;67835;51.968;5.646;2024-01-30T14:45:23;13.0;61.5
78541;SHT31;67835;51.968;5.646;2024-01-30T14:47:52;13.0;61.7
78541;SHT31;67835;51.968;5.646;2024-01-30T14:50:22;13.0;61.7
78541;SHT31;67835;51.968;5.646;2024-01-30T14:52:50;12.9;61.8
78541;SHT31;67835;51.968;5.646;2024-01-30T14:55:19;12.9;61.9
78541;SHT31;67835;51.968;5.646;2024-01-30T14:57:48;12.8;62.0
78541;SHT31;67835;51.968;5.646;2024-01-30T15:00:17;12.8;61.9
78541;SHT31;67835;51.968;5.646;2024-01-30T15:02:46;12.8;62.4
78541;SHT31;67835;51.968;5.646;2024-01-30T15:05:14;12.7;62.2
78541;SHT31;67835;51.968;5.646;2024-01-30T15:07:43;12.7;62.5
78541;SHT31;67835;51.968;5.646;2024-01-30T15:10:14;12.6;62.5
78541;SHT31;67835;51.968;5.646;2024-01-30T15:12:43;12.6;62.6
78541;SHT31;67835;51.968;5.646;2024-01-30T15:15:13;12.5;62.8
78541;SHT31;67835;51.968;5.646;2024-01-30T15:17:41;12.5;62.9
78541;SHT31;67835;51.968;5.646;2024-01-30T15:20:10;12.4;63.1
78541;SHT31;67835;51.968;5.646;2024-01-30T15:22:39;12.4;63.4
78541;SHT31;67835;51.968;5.646;2024-01-30T15:25:08;12.4;63.7
78541;SHT31;67835;51.968;5.646;2024-01-30T15:27:36;12.3;64.1
78541;SHT31;67835;51.968;5.646;2024-01-30T15:30:06;12.2;64.6
78541;SHT31;67835;51.968;5.646;2024-01-30T15:32:36;12.2;65.0
78541;SHT31;67835;51.968;5.646;2024-01-30T15:35:06;12.1;65.2
78541;SHT31;67835;51.968;5.646;2024-01-30T15:37:35;12.1;65.5
78541;SHT31;67835;51.968;5.646;2024-01-30T15:40:05;12.0;66.2
78541;SHT31;67835;51.968;5.646;2024-01-30T15:42:35;12.0;66.8
78541;SHT31;67835;51.968;5.646;2024-01-30T15:45:04;11.9;67.7
78541;SHT31;67835;51.968;5.646;2024-01-30T15:47:33;11.9;68.0
78541;SHT31;67835;51.968;5.646;2024-01-30T15:50:01;11.8;68.2
78541;SHT31;67835;51.968;5.646;2024-01-30T15:52:30;11.8;68.4
78541;SHT31;67835;51.968;5.646;2024-01-30T15:54:59;11.8;68.6
78541;SHT31;67835;51.968;5.646;2024-01-30T15:57:29;11.7;68.5
78541;SHT31;67835;51.968;5.646;2024-01-30T15:59:58;11.7;68.7
78541;SHT31;67835;51.968;5.646;2024-01-30T16:02:28;11.6;68.8
78541;SHT31;67835;51.968;5.646;2024-01-30T16:04:57;11.6;68.9
78541;SHT31;67835;51.968;5.646;2024-01-30T16:07:26;11.6;69.3
78541;SHT31;67835;51.968;5.646;2024-01-30T16:09:59;11.6;69.5
78541;SHT31;67835;51.968;5.646;2024-01-30T16:12:28;11.8;69.1
78541;SHT31;67835;51.968;5.646;2024-01-30T16:14:56;11.9;68.3
78541;SHT31;67835;51.968;5.646;2024-01-30T16:17:25;11.9;68.0